createdAt,value
2019-02-16T00:00:09.808Z,101958.25
2019-02-16T00:03:17.672Z,101948.52
2019-02-16T00:06:24.204Z,101947.11
2019-02-16T00:09:30.449Z,101949.11
2019-02-16T00:12:36.911Z,101939.11
2019-02-16T00:15:43.744Z,101939.11
2019-02-16T00:18:50.192Z,101930.85
2019-02-16T00:21:56.835Z,101918.98
2019-02-16T00:25:03.247Z,101922.68
2019-02-16T00:28:09.690Z,101915.89
2019-02-16T00:31:16.239Z,101640.09
2019-02-16T00:34:22.583Z,101914.55
2019-02-16T00:37:29.014Z,101921.98
2019-02-16T00:40:35.262Z,101919.29
2019-02-16T00:43:41.840Z,101914.19
2019-02-16T00:46:48.572Z,101917.81
2019-02-16T00:49:55.142Z,101917.13
2019-02-16T00:53:01.472Z,101907.41
2019-02-16T00:56:07.800Z,101907.41
2019-02-16T00:59:14.169Z,101898.97
2019-02-16T01:02:20.555Z,101903.67
2019-02-16T01:05:27.109Z,101890.85
2019-02-16T01:08:33.476Z,101886.06
2019-02-16T01:11:39.931Z,101893.19
2019-02-16T01:14:46.272Z,101876.95
2019-02-16T01:17:52.897Z,101864.41
2019-02-16T01:20:59.122Z,101867.48
2019-02-16T01:24:05.544Z,101853.58
2019-02-16T01:27:11.872Z,101852.48
2019-02-16T01:30:18.228Z,101850.75
2019-02-16T01:33:24.593Z,101842.81
2019-02-16T01:36:30.868Z,101837.88
2019-02-16T01:39:37.186Z,101820.24
2019-02-16T01:42:43.439Z,101826.61
2019-02-16T01:45:49.775Z,101820.16
2019-02-16T01:48:56.131Z,101822.68
2019-02-16T01:52:02.421Z,101816.41
2019-02-16T01:55:10.542Z,101815.75
2019-02-16T01:58:16.918Z,101814.50
2019-02-16T02:01:23.617Z,101819.80
2019-02-16T02:04:29.889Z,101818.07
2019-02-16T02:07:36.242Z,101803.09
2019-02-16T02:10:42.504Z,101795.66
2019-02-16T02:13:48.919Z,101796.20
2019-02-16T02:16:55.214Z,101789.78
2019-02-16T02:20:01.702Z,101779.27
2019-02-16T02:23:08.054Z,101769.24
2019-02-16T02:26:14.394Z,101763.50
2019-02-16T02:29:21.078Z,101763.08
2019-02-16T02:32:27.443Z,101756.61
2019-02-16T02:35:33.821Z,101758.92
2019-02-16T02:38:40.148Z,101766.81
2019-02-16T02:41:46.606Z,101765.83
2019-02-16T02:44:52.964Z,101756.98
2019-02-16T02:47:59.317Z,101750.89
2019-02-16T02:51:05.617Z,101746.27
2019-02-16T02:54:11.980Z,101751.20
2019-02-16T02:57:18.339Z,101747.09
2019-02-16T03:00:24.726Z,101749.77
2019-02-16T03:03:31.000Z,101749.16
2019-02-16T03:06:37.343Z,101744.39
2019-02-16T03:09:43.715Z,101743.38
2019-02-16T03:12:50.066Z,101730.28
2019-02-16T03:15:56.419Z,101739.77
2019-02-16T03:19:02.748Z,101731.33
2019-02-16T03:22:09.168Z,101729.50
2019-02-16T03:25:15.507Z,101723.81
2019-02-16T03:28:38.063Z,101732.21
2019-02-16T03:32:09.600Z,101719.97
2019-02-16T03:36:09.213Z,101712.30
2019-02-16T03:39:18.636Z,101700.00
2019-02-16T03:42:25.027Z,101695.06
2019-02-16T03:45:31.434Z,101695.89
2019-02-16T03:48:37.810Z,101703.36
2019-02-16T03:51:44.137Z,101695.33
2019-02-16T03:54:50.435Z,101695.26
2019-02-16T03:57:56.747Z,101700.98
2019-02-16T04:01:03.079Z,101690.37
2019-02-16T04:04:09.326Z,101683.35
2019-02-16T04:07:15.694Z,101671.55
2019-02-16T04:10:21.957Z,101664.58
2019-02-16T04:13:28.284Z,101662.84
2019-02-16T04:16:34.720Z,101652.27
2019-02-16T04:19:41.076Z,101651.20
2019-02-16T04:22:47.455Z,101644.47
2019-02-16T04:25:53.809Z,101651.60
2019-02-16T04:29:00.147Z,101653.83
2019-02-16T04:32:06.441Z,101643.30
2019-02-16T04:35:12.698Z,101632.60
2019-02-16T04:38:18.962Z,101624.59
2019-02-16T04:41:25.442Z,101624.70
2019-02-16T04:44:31.864Z,101614.95
2019-02-16T04:47:38.139Z,101620.20
2019-02-16T04:50:44.730Z,101607.94
2019-02-16T04:53:51.205Z,101612.70
2019-02-16T04:56:57.742Z,101600.31
2019-02-16T05:00:04.268Z,101601.41
2019-02-16T05:03:11.846Z,101601.84
2019-02-16T05:06:19.691Z,101595.55
2019-02-16T05:09:26.045Z,101596.95
2019-02-16T05:12:32.426Z,101555.91
2019-02-16T05:15:38.888Z,101577.37
2019-02-16T05:18:45.364Z,101582.41
2019-02-16T05:21:51.996Z,101579.02
2019-02-16T05:24:58.438Z,101578.30
2019-02-16T05:28:04.808Z,101579.52
2019-02-16T05:31:11.236Z,101558.61
2019-02-16T05:34:20.499Z,101566.56
2019-02-16T05:37:26.892Z,101563.52
2019-02-16T05:40:33.286Z,101557.75
2019-02-16T05:43:39.676Z,101564.55
2019-02-16T05:46:46.120Z,101559.82
2019-02-16T05:49:52.387Z,101555.03
2019-02-16T05:52:58.733Z,101559.48
2019-02-16T05:56:05.303Z,101556.84
2019-02-16T05:59:12.537Z,101549.06
2019-02-16T06:02:18.886Z,101549.35
2019-02-16T06:05:25.215Z,101546.25
2019-02-16T06:08:31.607Z,101549.33
2019-02-16T06:11:38.507Z,101535.90
2019-02-16T06:14:44.926Z,101526.24
2019-02-16T06:17:51.298Z,101525.95
2019-02-16T06:20:57.820Z,101528.83
2019-02-16T06:24:04.256Z,101514.48
2019-02-16T06:27:10.669Z,101515.54
2019-02-16T06:30:17.115Z,101514.50
2019-02-16T06:33:23.527Z,101516.19
2019-02-16T06:36:48.060Z,101517.17
2019-02-16T06:39:54.603Z,101506.52
2019-02-16T06:43:01.478Z,101516.82
2019-02-16T06:46:08.019Z,101512.16
2019-02-16T06:49:18.796Z,101503.69
2019-02-16T06:52:25.155Z,101497.02
2019-02-16T06:55:39.688Z,101496.13
2019-02-16T06:58:46.188Z,101496.13
2019-02-16T07:01:52.557Z,101493.74
2019-02-16T07:04:58.994Z,101497.98
2019-02-16T07:08:05.374Z,101490.27
2019-02-16T07:11:11.728Z,101490.63
2019-02-16T07:14:18.514Z,101499.89
2019-02-16T07:17:47.868Z,101494.70
2019-02-16T07:20:54.223Z,101486.52
2019-02-16T07:24:00.608Z,101482.13
2019-02-16T07:27:06.904Z,101480.33
2019-02-16T07:30:13.327Z,101475.97
2019-02-16T07:33:19.688Z,101480.39
2019-02-16T07:36:26.647Z,101477.70
2019-02-16T07:39:32.925Z,101471.67
2019-02-16T07:42:57.504Z,101471.72
2019-02-16T07:46:10.324Z,101462.27
2019-02-16T07:49:23.159Z,101457.89
2019-02-16T07:52:35.030Z,101467.08
2019-02-16T07:55:48.570Z,101460.28
2019-02-16T07:59:11.834Z,101458.29
2019-02-16T08:02:31.319Z,101455.59
2019-02-16T08:06:11.986Z,101459.00
2019-02-16T08:09:37.396Z,101464.26
2019-02-16T08:13:10.649Z,101455.33
2019-02-16T08:16:46.216Z,101451.63
2019-02-16T08:20:14.331Z,101442.86
2019-02-16T08:23:40.398Z,101439.16
2019-02-16T08:26:56.464Z,101425.50
2019-02-16T08:30:23.098Z,101424.66
2019-02-16T08:33:37.663Z,101424.63
2019-02-16T08:37:06.083Z,101413.45
2019-02-16T08:40:34.537Z,101411.73
2019-02-16T08:43:56.768Z,101412.67
2019-02-16T08:47:16.431Z,101403.71
2019-02-16T08:50:46.121Z,101412.84
2019-02-16T08:54:09.590Z,101398.39
2019-02-16T08:57:25.365Z,101402.50
2019-02-16T09:00:49.510Z,101414.28
2019-02-16T09:04:15.018Z,101401.35
2019-02-16T09:07:35.634Z,101393.34
2019-02-16T09:10:54.209Z,101389.92
2019-02-16T09:14:25.601Z,101382.25
2019-02-16T09:17:52.478Z,101383.25
2019-02-16T09:21:18.252Z,101379.41
2019-02-16T09:24:48.280Z,101368.21
2019-02-16T09:28:04.238Z,101357.61
2019-02-16T09:31:16.172Z,101361.37
2019-02-16T09:34:35.420Z,101364.12
2019-02-16T09:38:03.888Z,101366.75
2019-02-16T09:41:38.317Z,101362.52
2019-02-16T09:44:59.352Z,101342.69
2019-02-16T09:48:14.711Z,101346.26
2019-02-16T09:51:31.715Z,101330.91
2019-02-16T09:55:06.650Z,101330.91
2019-02-16T09:58:28.412Z,101328.39
2019-02-16T10:02:00.459Z,101324.20
2019-02-16T10:05:26.400Z,101251.75
2019-02-16T10:08:48.683Z,101251.75
2019-02-16T10:12:11.043Z,101296.77
2019-02-16T10:15:51.441Z,101288.76
2019-02-16T10:19:13.117Z,101308.63
2019-02-16T10:22:36.249Z,101302.14
2019-02-16T10:26:00.375Z,101299.97
2019-02-16T10:29:26.452Z,101297.16
2019-02-16T10:32:52.238Z,101277.56
2019-02-16T10:36:07.793Z,101270.28
2019-02-16T10:39:39.124Z,101273.45
2019-02-16T10:43:16.556Z,101262.34
2019-02-16T10:46:30.573Z,101255.27
2019-02-16T10:49:54.662Z,101244.77
2019-02-16T10:53:24.685Z,101245.22
2019-02-16T10:56:43.857Z,101231.98
2019-02-16T11:00:08.061Z,101238.95
2019-02-16T11:03:32.248Z,101218.50
2019-02-16T11:06:57.624Z,101209.59
2019-02-16T11:10:14.231Z,101207.95
2019-02-16T11:13:38.684Z,101194.30
2019-02-16T11:17:12.997Z,101197.33
2019-02-16T11:20:41.103Z,101196.75
2019-02-16T11:23:57.665Z,101184.49
2019-02-16T11:27:12.925Z,101181.42
2019-02-16T11:30:44.507Z,101182.67
2019-02-16T11:34:03.600Z,101176.89
2019-02-16T11:37:25.126Z,101166.33
2019-02-16T11:40:56.518Z,101165.70
2019-02-16T11:44:21.064Z,101170.08
2019-02-16T11:47:45.276Z,101154.81
2019-02-16T11:51:15.267Z,101150.95
2019-02-16T11:54:55.769Z,101146.67
2019-02-16T11:58:25.527Z,101137.28
2019-02-16T12:01:44.564Z,101141.51
2019-02-16T12:05:31.643Z,101128.11
2019-02-16T12:08:56.942Z,101133.03
2019-02-16T12:12:40.907Z,101126.01
2019-02-16T12:15:57.601Z,101114.78
2019-02-16T12:19:31.640Z,101124.42
2019-02-16T12:22:46.840Z,101124.23
2019-02-16T12:26:13.339Z,101113.28
2019-02-16T12:29:37.652Z,101122.41
2019-02-16T12:33:00.128Z,101105.98
2019-02-16T12:36:22.201Z,101094.27
2019-02-16T12:39:56.697Z,101092.14
2019-02-16T12:43:24.897Z,101082.62
2019-02-16T12:46:49.958Z,101080.75
2019-02-16T12:50:17.188Z,101098.84
2019-02-16T12:53:31.638Z,101097.80
2019-02-16T12:56:59.808Z,101125.16
2019-02-16T13:00:27.369Z,101125.16
2019-02-16T13:04:08.228Z,101132.31
2019-02-16T13:07:43.846Z,101136.11
2019-02-16T13:11:02.999Z,101114.48
2019-02-16T13:14:22.062Z,101089.74
2019-02-16T13:17:47.435Z,101087.59
2019-02-16T13:21:12.183Z,101085.30
2019-02-16T13:24:30.130Z,101079.05
2019-02-16T13:27:50.187Z,101086.25
2019-02-16T13:31:23.286Z,101076.66
2019-02-16T13:34:50.980Z,101078.45
2019-02-16T13:38:06.616Z,101078.67
2019-02-16T13:41:28.009Z,101070.60
2019-02-16T13:44:47.852Z,101056.16
2019-02-16T13:48:13.493Z,101042.06
2019-02-16T13:51:26.089Z,101022.56
2019-02-16T13:54:49.867Z,101006.42
2019-02-16T13:58:33.282Z,100990.27
2019-02-16T14:01:58.672Z,101001.82
2019-02-16T14:05:14.732Z,100998.77
2019-02-16T14:08:29.292Z,101003.69
2019-02-16T14:11:43.144Z,101004.30
2019-02-16T14:15:04.150Z,101005.75
2019-02-16T14:18:10.545Z,101003.77
2019-02-16T14:21:17.999Z,101005.76
2019-02-16T14:24:42.357Z,101007.64
2019-02-16T14:27:48.728Z,100998.84
2019-02-16T14:30:55.166Z,100991.80
2019-02-16T14:34:01.695Z,100991.58
2019-02-16T14:37:26.013Z,100997.14
2019-02-16T14:40:33.159Z,101002.89
2019-02-16T14:43:39.532Z,101014.81
2019-02-16T14:46:46.959Z,100998.36
2019-02-16T14:49:53.330Z,100999.72
2019-02-16T14:53:00.723Z,100998.88
2019-02-16T14:56:07.118Z,100996.89
2019-02-16T14:59:13.392Z,101000.31
2019-02-16T15:02:20.324Z,101002.52
2019-02-16T15:05:27.160Z,100996.22
2019-02-16T15:08:33.711Z,100981.14
2019-02-16T15:11:40.196Z,100976.56
2019-02-16T15:14:46.822Z,100980.06
2019-02-16T15:17:53.246Z,100989.21
2019-02-16T15:20:59.681Z,100995.05
2019-02-16T15:24:08.296Z,101001.95
2019-02-16T15:27:15.219Z,101004.06
2019-02-16T15:30:21.766Z,100996.35
2019-02-16T15:33:29.733Z,101003.09
2019-02-16T15:36:36.179Z,101007.66
2019-02-16T15:39:43.107Z,101013.01
2019-02-16T15:42:50.419Z,101012.06
2019-02-16T15:45:58.374Z,101023.83
2019-02-16T15:49:04.838Z,101039.88
2019-02-16T15:52:11.176Z,101061.63
2019-02-16T15:55:18.672Z,101070.94
2019-02-16T15:58:25.048Z,101075.66
2019-02-16T16:01:31.478Z,101090.39
2019-02-16T16:04:38.055Z,101088.75
2019-02-16T16:07:47.036Z,101101.75
2019-02-16T16:11:18.196Z,101113.36
2019-02-16T16:14:50.288Z,101123.48
2019-02-16T16:18:24.722Z,101123.75
2019-02-16T16:21:49.254Z,101135.59
2019-02-16T16:25:13.256Z,101158.59
2019-02-16T16:29:00.171Z,101168.98
2019-02-16T16:32:19.106Z,101174.45
2019-02-16T16:35:44.560Z,101177.57
2019-02-16T16:39:13.184Z,101170.48
2019-02-16T16:42:54.576Z,101181.20
2019-02-16T16:46:10.807Z,101185.30
2019-02-16T16:49:45.201Z,101206.83
2019-02-16T16:53:22.764Z,101214.14
2019-02-16T16:56:38.601Z,101222.40
2019-02-16T17:00:07.012Z,101216.02
2019-02-16T17:03:32.485Z,101224.52
2019-02-16T17:06:55.284Z,101232.66
2019-02-16T17:10:35.929Z,101225.91
2019-02-16T17:14:16.525Z,101244.73
2019-02-16T17:17:39.575Z,101243.59
2019-02-16T17:21:02.226Z,101242.30
2019-02-16T17:24:15.974Z,101254.81
2019-02-16T17:27:40.067Z,101249.39
2019-02-16T17:30:55.590Z,101254.73
2019-02-16T17:34:24.044Z,101262.88
2019-02-16T17:37:52.216Z,101264.09
2019-02-16T17:41:16.697Z,101268.45
2019-02-16T17:44:42.189Z,101260.87
2019-02-16T17:48:04.959Z,101277.66
2019-02-16T17:51:20.238Z,101276.23
2019-02-16T17:54:39.911Z,101283.49
2019-02-16T17:57:58.508Z,101273.95
2019-02-16T18:01:27.153Z,101281.19
2019-02-16T18:04:54.394Z,101291.92
2019-02-16T18:08:34.847Z,101299.41
2019-02-16T18:11:49.662Z,101295.66
2019-02-16T18:15:11.278Z,101300.94
2019-02-16T18:18:28.423Z,101303.45
2019-02-16T18:21:52.325Z,101308.83
2019-02-16T18:25:16.689Z,101314.19
2019-02-16T18:28:57.222Z,101303.79
2019-02-16T18:32:13.278Z,101302.05
2019-02-16T18:35:39.552Z,101305.09
2019-02-16T18:39:08.739Z,101310.31
2019-02-16T18:42:37.404Z,101307.36
2019-02-16T18:46:01.584Z,101313.20
2019-02-16T18:49:33.585Z,101307.20
2019-02-16T18:52:51.396Z,101311.97
2019-02-16T18:56:22.906Z,101326.06
2019-02-16T18:59:48.806Z,101315.69
2019-02-16T19:03:05.405Z,101330.98
2019-02-16T19:06:35.410Z,101329.17
2019-02-16T19:10:00.860Z,101333.17
2019-02-16T19:13:27.839Z,101334.31
2019-02-16T19:17:05.441Z,101337.90
2019-02-16T19:20:30.140Z,101334.58
2019-02-16T19:23:43.773Z,101354.88
2019-02-16T19:27:16.761Z,101352.86
2019-02-16T19:30:31.721Z,101346.11
2019-02-16T19:33:57.165Z,101360.34
2019-02-16T19:37:34.786Z,101351.22
2019-02-16T19:40:59.411Z,101360.38
2019-02-16T19:44:37.318Z,101373.23
2019-02-16T19:48:18.386Z,101379.00
2019-02-16T19:51:52.912Z,101384.05
2019-02-16T19:55:04.861Z,101391.69
2019-02-16T19:58:29.213Z,101400.98
2019-02-16T20:01:50.456Z,101397.95
2019-02-16T20:05:07.038Z,101404.38
2019-02-16T20:08:30.763Z,101396.23
2019-02-16T20:12:14.644Z,101405.03
2019-02-16T20:15:45.387Z,101408.92
2019-02-16T20:19:10.865Z,101414.84
2019-02-16T20:22:44.956Z,101417.22
2019-02-16T20:26:12.611Z,101422.97
2019-02-16T20:29:27.007Z,101408.42
2019-02-16T20:32:44.748Z,101429.91
2019-02-16T20:36:09.012Z,101449.34
2019-02-16T20:39:40.476Z,101448.48
2019-02-16T20:42:55.892Z,101455.96
2019-02-16T20:46:24.154Z,101457.14
2019-02-16T20:49:48.516Z,101462.17
2019-02-16T20:53:12.791Z,101467.59
2019-02-16T20:56:28.402Z,101465.21
2019-02-16T20:59:49.504Z,101467.59
2019-02-16T21:03:16.210Z,101477.91
2019-02-16T21:06:51.459Z,101489.91
2019-02-16T21:10:07.721Z,101492.56
2019-02-16T21:13:31.472Z,101483.47
2019-02-16T21:17:08.964Z,101490.55
2019-02-16T21:20:44.082Z,101487.17
2019-02-16T21:24:08.765Z,101504.61
2019-02-16T21:27:39.995Z,101501.37
2019-02-16T21:31:07.805Z,101506.81
2019-02-16T21:34:37.127Z,101508.78
2019-02-16T21:38:03.187Z,101523.31
2019-02-16T21:41:16.848Z,101518.93
2019-02-16T21:44:38.879Z,101532.77
2019-02-16T21:48:04.294Z,101544.94
2019-02-16T21:51:28.764Z,101551.06
2019-02-16T21:55:00.367Z,101562.52
2019-02-16T21:58:18.277Z,101574.95
2019-02-16T22:01:43.750Z,101564.18
2019-02-16T22:05:11.948Z,101565.85
2019-02-16T22:08:33.081Z,101568.91
2019-02-16T22:11:58.525Z,101573.96
2019-02-16T22:15:05.677Z,101566.17
2019-02-16T22:18:12.121Z,101565.17
2019-02-16T22:21:18.901Z,101566.80
2019-02-16T22:24:25.546Z,101569.51
2019-02-16T22:27:31.962Z,101573.23
2019-02-16T22:30:38.487Z,101571.89
2019-02-16T22:33:45.014Z,101565.00
2019-02-16T22:36:51.442Z,101570.22
2019-02-16T22:39:57.860Z,101564.27
2019-02-16T22:43:04.371Z,101565.84
2019-02-16T22:46:10.842Z,101561.97
2019-02-16T22:49:17.393Z,101561.70
2019-02-16T22:52:23.843Z,101572.52
2019-02-16T22:55:30.646Z,101576.93
2019-02-16T22:58:38.539Z,101586.89
2019-02-16T23:01:45.260Z,101580.62
2019-02-16T23:04:54.709Z,101591.69
2019-02-16T23:08:01.040Z,101589.71
2019-02-16T23:11:11.351Z,101597.72
2019-02-16T23:14:17.879Z,101600.16
2019-02-16T23:17:24.358Z,101612.19
2019-02-16T23:20:30.777Z,101612.56
2019-02-16T23:23:40.240Z,101623.68
2019-02-16T23:26:46.620Z,101622.14
2019-02-16T23:29:54.039Z,101643.92
2019-02-16T23:33:00.459Z,101644.45
2019-02-16T23:36:08.492Z,101648.45
2019-02-16T23:39:15.458Z,101653.52
2019-02-16T23:42:21.812Z,101655.29
2019-02-16T23:45:28.080Z,101655.59
2019-02-16T23:48:37.446Z,101664.17
2019-02-16T23:51:47.842Z,101665.72
2019-02-16T23:54:54.223Z,101675.02
2019-02-16T23:58:00.766Z,101685.06
